createdAt,value
2023-01-11T00:00:11.454Z,1.95
2023-01-11T00:02:39.420Z,0.00
2023-01-11T00:05:11.007Z,0.10
2023-01-11T00:07:40.927Z,0.80
2023-01-11T00:10:12.572Z,0.88
2023-01-11T00:12:40.493Z,0.00
2023-01-11T00:15:08.806Z,1.20
2023-01-11T00:17:37.394Z,0.60
2023-01-11T00:20:05.452Z,0.30
2023-01-11T00:22:32.779Z,0.47
2023-01-11T00:25:01.139Z,0.13
2023-01-11T00:27:30.329Z,0.05
2023-01-11T00:29:58.190Z,0.13
2023-01-11T00:32:27.299Z,0.20
2023-01-11T00:34:55.383Z,0.37
2023-01-11T00:37:23.616Z,0.10
2023-01-11T00:39:53.681Z,0.47
2023-01-11T00:42:39.840Z,0.62
2023-01-11T00:45:27.116Z,0.00
2023-01-11T00:47:57.925Z,0.15
2023-01-11T00:50:32.550Z,0.35
2023-01-11T00:53:00.993Z,0.00
2023-01-11T00:55:29.256Z,0.00
2023-01-11T00:58:01.512Z,1.25
2023-01-11T01:00:30.413Z,0.95
2023-01-11T01:02:58.409Z,0.22
2023-01-11T01:05:27.026Z,0.00
2023-01-11T01:07:55.327Z,0.10
2023-01-11T01:10:23.126Z,0.00
2023-01-11T01:13:09.922Z,0.00
2023-01-11T01:15:39.976Z,0.10
2023-01-11T01:18:07.932Z,0.70
2023-01-11T01:20:35.947Z,0.10
2023-01-11T01:23:03.809Z,1.08
2023-01-11T01:25:31.588Z,0.00
2023-01-11T01:27:59.606Z,1.35
2023-01-11T01:30:27.936Z,0.10
2023-01-11T01:32:56.797Z,0.28
2023-01-11T01:35:24.644Z,0.00
2023-01-11T01:37:52.310Z,1.15
2023-01-11T01:40:19.953Z,0.37
2023-01-11T01:42:47.465Z,0.73
2023-01-11T01:45:25.988Z,0.52
2023-01-11T01:48:01.325Z,0.30
2023-01-11T01:50:37.095Z,0.00
2023-01-11T01:53:11.332Z,2.12
2023-01-11T01:55:41.694Z,1.17
2023-01-11T01:58:13.371Z,0.15
2023-01-11T02:03:12.196Z,0.00
2023-01-11T02:05:40.997Z,0.30
2023-01-11T02:08:12.177Z,0.17
2023-01-11T02:10:40.288Z,0.00
2023-01-11T02:13:11.115Z,0.80
2023-01-11T02:15:39.232Z,0.60
2023-01-11T02:18:10.525Z,0.65
2023-01-11T02:20:54.269Z,0.05
2023-01-11T02:23:30.626Z,0.32
2023-01-11T02:26:10.596Z,0.00
2023-01-11T02:28:47.090Z,0.20
2023-01-11T02:31:30.783Z,0.08
2023-01-11T02:34:11.136Z,0.00
2023-01-11T02:37:09.999Z,0.20
2023-01-11T02:40:04.484Z,0.10
2023-01-11T02:43:05.798Z,0.43
2023-01-11T02:45:55.979Z,0.68
2023-01-11T02:48:35.963Z,0.47
2023-01-11T02:51:08.087Z,0.43
2023-01-11T02:53:56.989Z,0.55
2023-01-11T02:56:31.305Z,0.90
2023-01-11T02:59:02.505Z,0.35
2023-01-11T03:01:30.795Z,1.20
2023-01-11T03:03:58.764Z,0.00
2023-01-11T03:06:31.090Z,0.60
2023-01-11T03:12:06.827Z,0.55
2023-01-11T03:14:56.473Z,0.60
2023-01-11T03:17:42.928Z,0.00
2023-01-11T03:20:20.478Z,0.20
2023-01-11T03:23:10.596Z,1.50
2023-01-11T03:25:51.585Z,0.05
2023-01-11T03:28:26.114Z,0.00
2023-01-11T03:31:08.480Z,0.98
2023-01-11T03:33:39.666Z,0.22
2023-01-11T03:36:23.798Z,0.73
2023-01-11T03:38:57.974Z,0.00
2023-01-11T03:41:29.996Z,0.50
2023-01-11T03:46:39.084Z,0.00
2023-01-11T03:49:21.195Z,0.62
2023-01-11T03:51:51.854Z,0.98
2023-01-11T03:54:27.022Z,0.00
2023-01-11T03:57:07.050Z,0.62
2023-01-11T03:59:35.490Z,0.75
2023-01-11T04:02:03.268Z,0.20
2023-01-11T04:04:32.004Z,0.80
2023-01-11T04:06:59.933Z,0.50
2023-01-11T04:09:27.944Z,0.32
2023-01-11T04:11:56.223Z,0.40
2023-01-11T04:14:23.681Z,0.17
2023-01-11T04:16:51.352Z,0.30
2023-01-11T04:19:19.170Z,0.00
2023-01-11T04:21:47.006Z,0.90
2023-01-11T04:24:14.777Z,0.65
2023-01-11T04:26:42.823Z,0.60
2023-01-11T04:29:11.344Z,0.52
2023-01-11T04:31:39.415Z,0.10
2023-01-11T04:34:07.980Z,0.00
2023-01-11T04:36:36.092Z,0.13
2023-01-11T04:39:04.985Z,0.10
2023-01-11T04:41:51.864Z,0.88
2023-01-11T04:44:19.695Z,0.00
2023-01-11T04:46:49.980Z,0.50
2023-01-11T04:49:19.309Z,0.45
2023-01-11T04:51:46.927Z,1.48
2023-01-11T04:54:16.662Z,0.70
2023-01-11T04:56:44.821Z,0.70
2023-01-11T04:59:18.106Z,0.62
2023-01-11T05:01:50.975Z,0.00
2023-01-11T05:06:48.157Z,0.20
2023-01-11T05:09:18.012Z,0.10
2023-01-11T05:11:46.072Z,1.12
2023-01-11T05:14:15.678Z,0.60
2023-01-11T05:16:44.571Z,0.13
2023-01-11T05:19:15.996Z,0.35
2023-01-11T05:21:45.875Z,1.80
2023-01-11T05:24:16.383Z,1.15
2023-01-11T05:26:45.883Z,0.10
2023-01-11T05:29:21.137Z,0.30
2023-01-11T05:31:50.790Z,0.55
2023-01-11T05:34:22.086Z,0.98
2023-01-11T05:36:51.505Z,0.90
2023-01-11T05:39:19.940Z,0.52
2023-01-11T05:41:48.180Z,0.20
2023-01-11T05:44:35.695Z,0.35
2023-01-11T05:47:04.328Z,0.80
2023-01-11T05:49:33.310Z,0.43
2023-01-11T05:52:02.999Z,0.62
2023-01-11T05:54:31.971Z,0.32
2023-01-11T05:57:03.952Z,1.23
2023-01-11T05:59:32.293Z,0.23
2023-01-11T06:02:00.583Z,0.03
2023-01-11T06:04:30.867Z,0.03
2023-01-11T06:07:00.585Z,0.90
2023-01-11T06:09:29.006Z,1.50
2023-01-11T06:11:57.251Z,0.37
2023-01-11T06:14:30.055Z,0.28
2023-01-11T06:17:03.190Z,1.15
2023-01-11T06:19:31.164Z,0.00
2023-01-11T06:21:59.131Z,0.17
2023-01-11T06:24:28.236Z,0.35
2023-01-11T06:26:56.251Z,0.00
2023-01-11T06:29:24.432Z,0.00
2023-01-11T06:31:53.375Z,0.28
2023-01-11T06:34:21.319Z,0.50
2023-01-11T06:36:49.236Z,0.47
2023-01-11T06:39:17.295Z,0.40
2023-01-11T06:41:45.350Z,0.30
2023-01-11T06:44:13.557Z,0.37
2023-01-11T06:46:42.346Z,0.70
2023-01-11T06:49:11.754Z,0.30
2023-01-11T06:51:41.337Z,1.25
2023-01-11T06:54:09.545Z,0.00
2023-01-11T06:56:37.638Z,0.47
2023-01-11T06:59:06.130Z,0.00
2023-01-11T07:01:34.430Z,0.25
2023-01-11T07:04:02.192Z,0.62
2023-01-11T07:06:32.140Z,0.57
2023-01-11T07:08:59.813Z,0.88
2023-01-11T07:11:32.447Z,0.62
2023-01-11T07:14:03.903Z,0.35
2023-01-11T07:16:32.277Z,0.93
2023-01-11T07:19:01.662Z,0.52
2023-01-11T07:21:30.337Z,1.65
2023-01-11T07:23:58.484Z,0.10
2023-01-11T07:26:28.328Z,1.00
2023-01-11T07:28:56.289Z,0.62
2023-01-11T07:31:26.142Z,0.00
2023-01-11T07:33:54.498Z,0.52
2023-01-11T07:36:25.001Z,0.00
2023-01-11T07:38:53.076Z,0.10
2023-01-11T07:41:39.808Z,1.75
2023-01-11T07:44:12.190Z,0.25
2023-01-11T07:46:41.069Z,0.10
2023-01-11T07:49:09.060Z,1.27
2023-01-11T07:54:12.009Z,0.25
2023-01-11T07:56:41.408Z,1.10
2023-01-11T07:59:09.955Z,1.37
2023-01-11T08:01:39.480Z,1.12
2023-01-11T08:04:12.094Z,0.28
2023-01-11T08:09:09.658Z,0.20
2023-01-11T08:11:57.091Z,0.62
2023-01-11T08:14:41.628Z,0.85
2023-01-11T08:17:14.907Z,0.40
2023-01-11T08:19:45.060Z,0.80
2023-01-11T08:22:21.096Z,0.57
2023-01-11T08:24:51.309Z,0.77
2023-01-11T08:27:19.353Z,0.82
2023-01-11T08:29:50.586Z,0.32
2023-01-11T08:32:18.103Z,0.45
2023-01-11T08:34:50.837Z,0.43
2023-01-11T08:37:20.001Z,1.35
2023-01-11T08:39:49.813Z,0.77
2023-01-11T08:42:19.201Z,0.00
2023-01-11T08:44:52.060Z,0.00
2023-01-11T08:47:20.358Z,0.73
2023-01-11T08:49:48.271Z,0.10
2023-01-11T08:52:17.752Z,0.80
2023-01-11T08:54:46.096Z,0.08
2023-01-11T08:57:14.434Z,0.77
2023-01-11T08:59:43.278Z,0.00
2023-01-11T09:02:12.845Z,0.62
2023-01-11T09:04:43.164Z,0.22
2023-01-11T09:07:12.011Z,0.05
2023-01-11T09:09:41.852Z,0.57
2023-01-11T09:12:10.281Z,0.10
2023-01-11T09:14:39.882Z,0.80
2023-01-11T09:17:09.072Z,0.35
2023-01-11T09:19:38.411Z,0.20
2023-01-11T09:24:38.788Z,0.10
2023-01-11T09:27:11.715Z,0.10
2023-01-11T09:29:42.432Z,0.28
2023-01-11T09:32:11.950Z,0.32
2023-01-11T09:34:41.900Z,0.40
2023-01-11T09:37:10.377Z,0.08
2023-01-11T09:39:39.195Z,0.43
2023-01-11T09:42:31.696Z,0.17
2023-01-11T09:45:14.036Z,0.43
2023-01-11T09:48:01.128Z,0.40
2023-01-11T09:50:34.057Z,0.73
2023-01-11T09:55:44.819Z,0.73
2023-01-11T09:58:29.302Z,0.10
2023-01-11T10:01:10.091Z,1.37
2023-01-11T10:03:49.980Z,0.47
2023-01-11T10:06:29.402Z,0.90
2023-01-11T10:21:29.249Z,0.30
2023-01-11T10:24:20.935Z,1.27
2023-01-11T10:26:58.965Z,0.77
2023-01-11T10:32:50.527Z,0.10
2023-01-11T10:38:56.787Z,1.27
2023-01-11T10:41:37.709Z,0.40
2023-01-11T10:44:09.940Z,0.95
2023-01-11T10:46:45.830Z,0.35
2023-01-11T10:49:37.553Z,0.85
2023-01-11T10:52:35.254Z,1.08
2023-01-11T10:55:24.138Z,0.47
2023-01-11T10:58:01.589Z,0.20
2023-01-11T11:00:51.355Z,0.82
2023-01-11T11:03:32.962Z,0.22
2023-01-11T11:06:34.803Z,0.52
2023-01-11T11:09:19.102Z,1.83
2023-01-11T11:12:10.896Z,1.08
2023-01-11T11:15:00.875Z,0.62
2023-01-11T11:17:38.258Z,0.22
2023-01-11T11:20:24.057Z,0.50
2023-01-11T11:22:56.881Z,0.90
2023-01-11T11:25:27.641Z,0.55
2023-01-11T11:27:58.826Z,0.73
2023-01-11T11:30:31.934Z,0.05
2023-01-11T11:33:12.931Z,0.47
2023-01-11T11:35:46.881Z,0.20
2023-01-11T11:38:23.052Z,0.17
2023-01-11T11:40:59.323Z,0.62
2023-01-11T11:43:28.552Z,0.95
2023-01-11T11:46:01.323Z,0.20
2023-01-11T11:48:33.798Z,0.32
2023-01-11T11:51:05.365Z,0.98
2023-01-11T11:53:36.638Z,0.73
2023-01-11T11:56:19.793Z,0.75
2023-01-11T11:58:50.466Z,0.32
2023-01-11T12:01:37.769Z,1.62
2023-01-11T12:04:15.507Z,0.15
2023-01-11T12:06:46.461Z,0.20
2023-01-11T12:09:27.607Z,0.20
2023-01-11T12:11:58.324Z,0.65
2023-01-11T12:14:30.307Z,0.60
2023-01-11T12:16:59.085Z,0.08
2023-01-11T12:19:47.911Z,0.90
2023-01-11T12:22:19.795Z,0.50
2023-01-11T12:27:53.991Z,0.43
2023-01-11T12:30:27.143Z,0.30
2023-01-11T12:33:23.835Z,0.50
2023-01-11T12:36:30.012Z,0.30
2023-01-11T12:39:07.049Z,1.23
2023-01-11T12:41:45.763Z,0.70
2023-01-11T12:44:55.817Z,0.37
2023-01-11T12:47:57.967Z,0.47
2023-01-11T12:50:33.710Z,0.50
2023-01-11T12:53:16.103Z,0.10
2023-01-11T12:56:00.748Z,0.40
2023-01-11T12:58:34.740Z,0.43
2023-01-11T13:01:16.680Z,0.30
2023-01-11T13:04:03.861Z,0.10
2023-01-11T13:06:44.998Z,0.82
2023-01-11T13:09:36.748Z,0.62
2023-01-11T13:12:11.322Z,0.95
2023-01-11T13:15:04.897Z,0.43
2023-01-11T13:17:37.233Z,0.68
2023-01-11T13:20:24.784Z,0.62
2023-01-11T13:23:01.878Z,0.77
2023-01-11T13:25:39.373Z,0.43
2023-01-11T13:28:35.959Z,1.15
2023-01-11T13:31:06.054Z,0.60
2023-01-11T13:33:38.921Z,0.05
2023-01-11T13:36:22.580Z,0.80
2023-01-11T13:39:13.958Z,0.50
2023-01-11T13:41:52.865Z,0.68
2023-01-11T13:44:24.894Z,0.43
2023-01-11T13:50:17.750Z,0.13
2023-01-11T13:52:55.842Z,0.08
2023-01-11T13:55:31.286Z,0.65
2023-01-11T13:58:43.082Z,0.52
2023-01-11T14:04:43.908Z,0.05
2023-01-11T14:08:01.112Z,0.73
2023-01-11T14:10:43.774Z,0.15
2023-01-11T14:14:09.867Z,1.05
2023-01-11T14:16:45.277Z,0.00
2023-01-11T14:19:20.796Z,0.50
2023-01-11T14:22:04.812Z,0.65
2023-01-11T14:24:38.548Z,0.57
2023-01-11T14:27:33.141Z,0.68
2023-01-11T14:32:54.939Z,0.47
2023-01-11T14:35:43.125Z,0.93
2023-01-11T14:41:26.929Z,0.08
2023-01-11T14:44:13.829Z,2.37
2023-01-11T14:47:19.770Z,1.75
2023-01-11T14:50:08.567Z,1.30
2023-01-11T14:52:40.696Z,0.73
2023-01-11T14:55:25.808Z,0.62
2023-01-11T14:57:55.140Z,0.60
2023-01-11T15:00:32.576Z,0.85
2023-01-11T15:03:01.316Z,2.28
2023-01-11T15:05:38.950Z,1.75
2023-01-11T15:08:13.559Z,0.93
2023-01-11T15:11:00.994Z,0.80
2023-01-11T15:13:40.820Z,0.88
2023-01-11T15:19:37.091Z,1.02
2023-01-11T15:22:06.944Z,1.73
2023-01-11T15:24:43.492Z,2.25
2023-01-11T15:27:24.236Z,1.55
2023-01-11T15:32:40.078Z,1.35
2023-01-11T15:38:23.915Z,2.00
2023-01-11T15:41:18.475Z,3.42
2023-01-11T15:44:36.391Z,0.57
2023-01-11T15:47:19.956Z,1.65
2023-01-11T15:50:18.049Z,0.73
2023-01-11T15:53:10.098Z,2.58
2023-01-11T15:56:15.282Z,1.87
2023-01-11T15:58:50.930Z,2.75
2023-01-11T16:01:28.957Z,2.58
2023-01-11T16:04:14.981Z,2.12
2023-01-11T16:06:53.119Z,3.17
2023-01-11T16:09:46.536Z,1.98
2023-01-11T16:12:33.751Z,2.60
2023-01-11T16:15:18.784Z,1.98
2023-01-11T16:17:51.343Z,1.12
2023-01-11T16:20:25.381Z,3.80
2023-01-11T16:23:03.833Z,3.87
2023-01-11T16:25:42.265Z,2.28
2023-01-11T16:28:30.012Z,1.85
2023-01-11T16:31:05.017Z,2.65
2023-01-11T16:33:35.102Z,1.33
2023-01-11T16:36:24.040Z,1.65
2023-01-11T16:38:58.966Z,2.83
2023-01-11T16:42:00.937Z,2.30
2023-01-11T16:44:42.934Z,12.05
2023-01-11T16:47:23.495Z,10.05
2023-01-11T16:50:25.272Z,9.00
2023-01-11T16:53:06.953Z,7.82
2023-01-11T16:58:29.824Z,4.20
2023-01-11T17:01:02.204Z,3.53
2023-01-11T17:03:44.113Z,1.65
2023-01-11T17:06:28.853Z,3.70
2023-01-11T17:09:13.375Z,1.77
2023-01-11T17:11:50.847Z,1.08
2023-01-11T17:14:32.782Z,1.33
2023-01-11T17:17:08.222Z,0.90
2023-01-11T17:19:38.959Z,1.62
2023-01-11T17:22:16.421Z,2.12
2023-01-11T17:24:55.087Z,2.87
2023-01-11T17:27:40.829Z,2.05
2023-01-11T17:30:16.867Z,2.42
2023-01-11T17:32:52.096Z,1.52
2023-01-11T17:35:29.816Z,1.37
2023-01-11T17:38:13.983Z,1.75
2023-01-11T17:40:48.686Z,1.67
2023-01-11T17:46:27.618Z,0.65
2023-01-11T17:49:09.140Z,0.80
2023-01-11T17:51:43.846Z,2.33
2023-01-11T17:57:01.718Z,1.37
2023-01-11T17:59:34.821Z,1.80
2023-01-11T18:02:05.763Z,1.45
2023-01-11T18:04:47.003Z,1.33
2023-01-11T18:07:28.715Z,2.83
2023-01-11T18:10:04.176Z,1.73
2023-01-11T18:12:45.732Z,1.95
2023-01-11T18:15:26.746Z,1.75
2023-01-11T18:20:48.734Z,1.90
2023-01-11T18:23:23.226Z,4.10
2023-01-11T18:28:57.776Z,1.35
2023-01-11T18:31:26.874Z,2.62
2023-01-11T18:33:57.952Z,3.50
2023-01-11T18:39:15.772Z,4.35
2023-01-11T18:42:05.899Z,3.72
2023-01-11T18:44:39.529Z,4.97
2023-01-11T18:47:25.949Z,5.62
2023-01-11T18:49:56.764Z,4.50
2023-01-11T18:52:34.805Z,1.67
2023-01-11T18:55:11.060Z,5.70
2023-01-11T18:57:48.733Z,6.05
2023-01-11T19:00:18.876Z,2.50
2023-01-11T19:02:47.110Z,4.47
2023-01-11T19:05:23.900Z,2.87
2023-01-11T19:07:55.834Z,5.57
2023-01-11T19:10:24.602Z,5.90
2023-01-11T19:13:00.806Z,3.87
2023-01-11T19:15:39.230Z,3.62
2023-01-11T19:18:17.828Z,5.12
2023-01-11T19:20:48.099Z,4.37
2023-01-11T19:23:17.891Z,2.80
2023-01-11T19:25:58.939Z,3.80
2023-01-11T19:31:11.801Z,4.82
2023-01-11T19:33:41.892Z,4.68
2023-01-11T19:36:10.790Z,2.42
2023-01-11T19:38:40.772Z,2.95
2023-01-11T19:41:16.800Z,1.55
2023-01-11T19:43:47.241Z,4.62
2023-01-11T19:48:55.334Z,2.30
2023-01-11T19:51:30.758Z,1.50
2023-01-11T19:54:04.937Z,3.22
2023-01-11T19:56:41.914Z,4.97
2023-01-11T19:59:16.262Z,2.50
2023-01-11T20:01:46.845Z,3.67
2023-01-11T20:06:58.864Z,3.08
2023-01-11T20:09:36.707Z,4.05
2023-01-11T20:12:11.787Z,4.72
2023-01-11T20:14:45.737Z,4.40
2023-01-11T20:17:15.828Z,3.15
2023-01-11T20:19:58.716Z,2.85
2023-01-11T20:22:33.774Z,5.70
2023-01-11T20:25:02.124Z,2.75
2023-01-11T20:27:32.003Z,3.42
2023-01-11T20:29:59.730Z,2.87
2023-01-11T20:32:41.748Z,2.08
2023-01-11T20:35:18.856Z,3.47
2023-01-11T20:37:49.129Z,4.85
2023-01-11T20:40:23.697Z,3.47
2023-01-11T20:42:53.133Z,7.50
2023-01-11T20:47:56.749Z,7.03
2023-01-11T20:50:25.147Z,4.15
2023-01-11T20:52:53.335Z,2.90
2023-01-11T20:55:26.944Z,7.10
2023-01-11T20:57:55.930Z,3.08
2023-01-11T21:00:28.890Z,4.25
2023-01-11T21:05:27.739Z,2.58
2023-01-11T21:07:57.707Z,3.12
2023-01-11T21:10:28.192Z,4.03
2023-01-11T21:15:27.653Z,5.60
2023-01-11T21:18:00.323Z,5.70
2023-01-11T21:20:32.126Z,3.33
2023-01-11T21:23:02.080Z,3.05
2023-01-11T21:25:38.098Z,1.95
2023-01-11T21:28:08.221Z,2.50
2023-01-11T21:30:39.937Z,3.28
2023-01-11T21:33:15.900Z,1.08
2023-01-11T21:35:44.621Z,2.35
2023-01-11T21:38:13.181Z,1.92
2023-01-11T21:40:42.942Z,6.45
2023-01-11T21:43:14.874Z,3.65
2023-01-11T21:45:54.172Z,5.22
2023-01-11T21:48:23.015Z,0.30
2023-01-11T21:50:52.379Z,2.55
2023-01-11T21:53:20.734Z,1.77
2023-01-11T21:55:49.897Z,0.60
2023-01-11T21:58:22.161Z,2.15
2023-01-11T22:00:51.071Z,2.10
2023-01-11T22:03:19.162Z,1.42
2023-01-11T22:05:50.970Z,2.28
2023-01-11T22:08:20.788Z,2.70
2023-01-11T22:11:02.331Z,2.37
2023-01-11T22:13:36.972Z,1.55
2023-01-11T22:16:11.643Z,2.25
2023-01-11T22:18:43.300Z,3.28
2023-01-11T22:21:18.139Z,1.15
2023-01-11T22:23:47.885Z,4.50
2023-01-11T22:26:18.892Z,1.45
2023-01-11T22:31:36.825Z,3.95
2023-01-11T22:34:07.043Z,1.77
2023-01-11T22:36:38.863Z,0.88
2023-01-11T22:39:07.886Z,3.00
2023-01-11T22:41:41.889Z,1.30
2023-01-11T22:44:10.603Z,3.92
2023-01-11T22:46:39.689Z,1.12
2023-01-11T22:49:08.167Z,3.25
2023-01-11T22:51:36.591Z,1.90
2023-01-11T22:54:05.130Z,2.60
2023-01-11T22:56:34.348Z,1.37
2023-01-11T22:59:02.880Z,1.62
2023-01-11T23:01:33.905Z,4.28
2023-01-11T23:04:03.645Z,1.10
2023-01-11T23:06:39.752Z,1.55
2023-01-11T23:09:15.997Z,3.28
2023-01-11T23:12:04.221Z,1.37
2023-01-11T23:14:34.954Z,3.42
2023-01-11T23:17:08.276Z,2.28
2023-01-11T23:19:40.817Z,1.35
2023-01-11T23:22:09.889Z,1.65
2023-01-11T23:24:39.073Z,1.58
2023-01-11T23:27:09.076Z,1.77
2023-01-11T23:29:37.594Z,1.62
2023-01-11T23:32:05.682Z,0.77
2023-01-11T23:34:33.685Z,2.10
2023-01-11T23:37:01.238Z,1.40
2023-01-11T23:39:32.966Z,1.35
2023-01-11T23:42:19.431Z,1.83
2023-01-11T23:44:47.552Z,1.90
2023-01-11T23:47:21.163Z,1.55
2023-01-11T23:50:01.158Z,1.75
2023-01-11T23:52:31.364Z,0.82
2023-01-11T23:55:00.795Z,0.57
2023-01-11T23:57:28.579Z,1.30
2023-01-11T23:59:56.996Z,0.05
